Time;durP1;ratioP1;P1;durP2;ratioP2;P2;SDS_P1;SDS_P2;PMS_P1;PMS_P2;Temp;Humidity;BMP_temperature;BMP_pressure;BME280_temperature;BME280_humidity;BME280_pressure;Samples;Min_cycle;Max_cycle;Signal;HPM_P1;HPM_P2
2022/09/14 00:03:49;;;;;;;;;;;;;;;;;;10419961;28;20330;-62
2022/09/14 00:08:52;;;;;;;;;;;;;;;;;;10421667;28;19932;-62
2022/09/14 00:13:54;;;;;;;;;;;;;;;;;;10422381;28;20003;-62
2022/09/14 00:18:56;;;;;;;;;;;;;;;;;;10421630;28;20372;-61
2022/09/14 00:23:58;;;;;;;;;;;;;;;;;;10421325;28;19970;-61
2022/09/14 00:29:03;;;;;;;;;;;;;;;;;;10419612;28;19928;-61
2022/09/14 00:34:05;;;;;;;;;;;;;;;;;;10420918;28;20015;-61
2022/09/14 00:39:08;;;;;;;;;;;;;;;;;;10421438;28;19975;-61
2022/09/14 00:44:10;;;;;;;;;;;;;;;;;;10421553;28;20513;-61
2022/09/14 00:49:12;;;;;;;;;;;;;;;;;;10418777;28;19929;-62
2022/09/14 00:54:14;;;;;;;;;;;;;;;;;;10420895;28;19971;-61
2022/09/14 00:59:16;;;;;;;;;;;;;;;;;;10419258;28;20292;-61
2022/09/14 01:04:18;;;;;;;;;;;;;;;;;;10419225;28;19925;-61
2022/09/14 01:09:20;;;;;;;;;;;;;;;;;;10419722;28;19984;-62
2022/09/14 01:14:22;;;;;;;;;;;;;;;;;;10420061;28;19972;-61
2022/09/14 01:19:24;;;;;;;;;;;;;;;;;;10417672;28;20376;-61
2022/09/14 01:24:26;;;;;;;;;;;;;;;;;;10419775;28;19925;-62
2022/09/14 01:29:28;;;;;;;;;;;;;;;;;;10419561;28;19941;-61
2022/09/14 01:34:30;;;;;;;;;;;;;;;;;;10417499;28;19975;-61
2022/09/14 01:39:32;;;;;;;;;;;;;;;;;;10419141;28;19925;-61
2022/09/14 01:44:34;;;;;;;;;;;;;;;;;;10418270;28;19987;-62
2022/09/14 01:49:37;;;;;;;;;;;;;;;;;;10417369;28;20377;-61
2022/09/14 01:54:39;;;;;;;;;;;;;;;;;;10417818;28;19987;-61
2022/09/14 01:59:41;;;;;;;;;;;;;;;;;;10418080;28;19932;-61
2022/09/14 02:04:43;;;;;;;;;;;;;;;;;;10415891;28;19971;-61
2022/09/14 02:09:45;;;;;;;;;;;;;;;;;;10417846;28;19975;-61
2022/09/14 02:14:47;;;;;;;;;;;;;;;;;;10417699;28;19925;-61
2022/09/14 02:19:49;;;;;;;;;;;;;;;;;;10416085;28;20435;-62
2022/09/14 02:24:51;;;;;;;;;;;;;;;;;;10417432;28;19929;-61
2022/09/14 02:29:53;;;;;;;;;;;;;;;;;;10417234;28;19979;-61
2022/09/14 02:34:55;;;;;;;;;;;;;;;;;;10414633;28;20335;-61
2022/09/14 02:39:57;;;;;;;;;;;;;;;;;;10398030;28;20015;-61
2022/09/14 02:44:59;;;;;;;;;;;;;;;;;;10416195;28;19925;-61
2022/09/14 02:50:02;;;;;;;;;;;;;;;;;;10416726;28;19929;-61
2022/09/14 02:55:04;;;;;;;;;;;;;;;;;;10415789;28;19972;-61
2022/09/14 03:00:06;;;;;;;;;;;;;;;;;;10415141;28;19945;-61
2022/09/14 03:05:08;;;;;;;;;;;;;;;;;;10415668;28;19929;-61
2022/09/14 03:10:10;;;;;;;;;;;;;;;;;;10416186;28;19980;-61
2022/09/14 03:15:12;;;;;;;;;;;;;;;;;;10415300;28;19984;-61
2022/09/14 03:20:14;;;;;;;;;;;;;;;;;;10418228;28;19979;-61
2022/09/14 03:25:18;;;;;;;;;;;;;;;;;;10423036;28;19925;-62
2022/09/14 03:30:20;;;;;;;;;;;;;;;;;;10422185;28;19934;-62
2022/09/14 03:35:22;;;;;;;;;;;;;;;;;;10423893;28;19936;-62
2022/09/14 03:40:24;;;;;;;;;;;;;;;;;;10423128;28;20332;-61
2022/09/14 03:45:26;;;;;;;;;;;;;;;;;;10422142;28;20460;-61
2022/09/14 03:50:28;;;;;;;;;;;;;;;;;;10422092;28;19925;-61
2022/09/14 03:55:30;;;;;;;;;;;;;;;;;;10422515;28;19964;-61
2022/09/14 04:00:32;;;;;;;;;;;;;;;;;;10422248;28;19929;-62
2022/09/14 04:05:34;;;;;;;;;;;;;;;;;;10422559;28;19925;-62
2022/09/14 04:10:36;;;;;;;;;;;;;;;;;;10421921;28;19925;-62
2022/09/14 04:15:38;;;;;;;;;;;;;;;;;;10422438;28;19925;-61
2022/09/14 04:20:40;;;;;;;;;;;;;;;;;;10420984;28;20281;-61
2022/09/14 04:25:42;;;;;;;;;;;;;;;;;;10422037;28;19929;-61
2022/09/14 04:30:44;;;;;;;;;;;;;;;;;;10418738;28;20327;-62
2022/09/14 04:35:46;;;;;;;;;;;;;;;;;;10420831;28;19929;-62
2022/09/14 04:40:48;;;;;;;;;;;;;;;;;;10421506;28;19925;-61
2022/09/14 04:45:50;;;;;;;;;;;;;;;;;;10421110;28;19929;-61
2022/09/14 04:50:52;;;;;;;;;;;;;;;;;;10419934;28;19929;-61
2022/09/14 04:55:54;;;;;;;;;;;;;;;;;;10420204;28;19929;-61
2022/09/14 05:00:56;;;;;;;;;;;;;;;;;;10418335;28;19971;-61
2022/09/14 05:05:58;;;;;;;;;;;;;;;;;;10420510;28;19979;-61
2022/09/14 05:11:00;;;;;;;;;;;;;;;;;;10419678;28;19929;-62
2022/09/14 05:16:02;;;;;;;;;;;;;;;;;;10419007;28;19955;-61
2022/09/14 05:21:05;;;;;;;;;;;;;;;;;;10419974;28;19932;-61
2022/09/14 05:26:09;;;;;;;;;;;;;;;;;;10419109;28;20320;-61
2022/09/14 05:31:11;;;;;;;;;;;;;;;;;;10417811;28;19952;-61
2022/09/14 05:36:14;;;;;;;;;;;;;;;;;;10419249;28;20024;-61
2022/09/14 05:41:16;;;;;;;;;;;;;;;;;;10419108;28;19925;-61
2022/09/14 05:46:19;;;;;;;;;;;;;;;;;;10417771;28;19925;-62
2022/09/14 05:51:21;;;;;;;;;;;;;;;;;;10417932;28;19929;-62
2022/09/14 05:56:23;;;;;;;;;;;;;;;;;;10417873;28;19975;-61
2022/09/14 06:01:25;;;;;;;;;;;;;;;;;;10416715;28;20300;-62
2022/09/14 06:06:27;;;;;;;;;;;;;;;;;;10417513;28;20376;-62
2022/09/14 06:11:30;;;;;;;;;;;;;;;;;;10415645;28;19925;-62
2022/09/14 06:16:32;;;;;;;;;;;;;;;;;;10417113;28;19929;-61
2022/09/14 06:21:34;;;;;;;;;;;;;;;;;;10415491;28;19925;-61
2022/09/14 06:26:36;;;;;;;;;;;;;;;;;;10417400;28;19929;-61
2022/09/14 06:31:38;;;;;;;;;;;;;;;;;;10415550;28;19925;-62
2022/09/14 06:36:40;;;;;;;;;;;;;;;;;;10416419;28;20434;-62
2022/09/14 06:41:42;;;;;;;;;;;;;;;;;;10416860;28;19956;-61
2022/09/14 06:46:44;;;;;;;;;;;;;;;;;;10415232;28;19926;-61
2022/09/14 06:51:49;;;;;;;;;;;;;;;;;;10415865;28;19929;-61
2022/09/14 06:56:51;;;;;;;;;;;;;;;;;;10413825;28;19929;-61
2022/09/14 07:01:53;;;;;;;;;;;;;;;;;;10415482;28;19929;-62
2022/09/14 07:06:55;;;;;;;;;;;;;;;;;;10415610;28;20331;-62
2022/09/14 07:11:57;;;;;;;;;;;;;;;;;;10416028;28;19925;-62
2022/09/14 07:16:59;;;;;;;;;;;;;;;;;;10415756;28;20439;-62
2022/09/14 07:22:01;;;;;;;;;;;;;;;;;;10415318;28;19979;-62
2022/09/14 07:27:03;;;;;;;;;;;;;;;;;;10413401;28;20384;-61
2022/09/14 07:32:05;;;;;;;;;;;;;;;;;;10415673;28;19971;-61
2022/09/14 07:37:07;;;;;;;;;;;;;;;;;;10415476;28;19979;-62
2022/09/14 07:42:09;;;;;;;;;;;;;;;;;;10414829;28;19925;-61
2022/09/14 07:47:11;;;;;;;;;;;;;;;;;;10415447;28;19925;-62
2022/09/14 07:52:13;;;;;;;;;;;;;;;;;;10414591;28;20008;-61
2022/09/14 07:57:16;;;;;;;;;;;;;;;;;;10415230;28;19940;-61
2022/09/14 08:02:18;;;;;;;;;;;;;;;;;;10414612;28;19925;-62
2022/09/14 08:07:20;;;;;;;;;;;;;;;;;;10417943;28;19929;-61
2022/09/14 08:12:22;;;;;;;;;;;;;;;;;;10419929;28;20372;-61
2022/09/14 08:17:24;;;;;;;;;;;;;;;;;;10422452;28;19925;-61
2022/09/14 08:22:26;;;;;;;;;;;;;;;;;;10420531;28;19925;-61
2022/09/14 08:27:28;;;;;;;;;;;;;;;;;;10419013;28;19956;-63
2022/09/14 08:32:30;;;;;;;;;;;;;;;;;;10421244;28;19929;-63
2022/09/14 08:37:32;;;;;;;;;;;;;;;;;;10420035;28;20337;-64
2022/09/14 08:42:34;;;;;;;;;;;;;;;;;;10421015;28;20304;-61
2022/09/14 08:47:38;;;;;;;;;;;;;;;;;;10419343;28;19925;-61
2022/09/14 08:52:42;;;;;;;;;;;;;;;;;;10421892;28;19952;-61
2022/09/14 08:57:44;;;;;;;;;;;;;;;;;;10419360;28;19929;-62
2022/09/14 09:02:46;;;;;;;;;;;;;;;;;;10419809;28;19925;-62
2022/09/14 09:07:49;;;;;;;;;;;;;;;;;;10418204;28;19925;-61
2022/09/14 09:12:52;;;;;;;;;;;;;;;;;;10419701;28;20449;-61
2022/09/14 09:17:54;;;;;;;;;;;;;;;;;;10419243;28;19929;-62
2022/09/14 09:22:56;;;;;;;;;;;;;;;;;;10419114;28;19929;-61
2022/09/14 09:27:58;;;;;;;;;;;;;;;;;;10416783;28;20356;-61
2022/09/14 09:33:00;;;;;;;;;;;;;;;;;;10419158;28;19925;-61
2022/09/14 09:38:03;;;;;;;;;;;;;;;;;;10418355;28;20039;-62
2022/09/14 09:43:05;;;;;;;;;;;;;;;;;;10418301;28;19929;-61
2022/09/14 09:48:07;;;;;;;;;;;;;;;;;;10416914;28;19948;-61
2022/09/14 09:53:09;;;;;;;;;;;;;;;;;;10418857;28;19929;-61
2022/09/14 09:58:11;;;;;;;;;;;;;;;;;;10417039;28;20274;-61
2022/09/14 10:03:13;;;;;;;;;;;;;;;;;;10417713;28;19925;-61
2022/09/14 10:08:17;;;;;;;;;;;;;;;;;;10415778;28;19932;-61
2022/09/14 10:13:19;;;;;;;;;;;;;;;;;;10417830;28;19925;-61
2022/09/14 10:18:21;;;;;;;;;;;;;;;;;;10417805;28;19925;-62
2022/09/14 10:23:24;;;;;;;;;;;;;;;;;;10416626;28;19991;-62
2022/09/14 10:28:26;;;;;;;;;;;;;;;;;;10416632;28;19926;-62
2022/09/14 10:33:28;;;;;;;;;;;;;;;;;;10417294;28;19925;-62
2022/09/14 10:38:30;;;;;;;;;;;;;;;;;;10413974;28;20341;-62
2022/09/14 10:43:33;;;;;;;;;;;;;;;;;;10416796;28;19979;-62
2022/09/14 10:48:35;;;;;;;;;;;;;;;;;;10415241;28;20281;-62
2022/09/14 10:53:39;;;;;;;;;;;;;;;;;;10414341;28;19952;-62
2022/09/14 10:58:41;;;;;;;;;;;;;;;;;;10416357;28;19925;-62
2022/09/14 11:03:44;;;;;;;;;;;;;;;;;;10415042;28;19929;-62
2022/09/14 11:08:47;;;;;;;;;;;;;;;;;;10374818;28;20372;-62
2022/09/14 11:13:49;;;;;;;;;;;;;;;;;;10374803;28;19972;-62
2022/09/14 11:18:51;;;;;;;;;;;;;;;;;;10454504;22;20030;-62
2022/09/14 11:23:53;;;;;;;;;;;;;;;;;;10466546;28;19929;-62
2022/09/14 11:28:55;;;;;;;;;;;;;;;;;;10477259;28;19928;-69
2022/09/14 11:33:57;;;;;;;;;;;;;;;;;;10453996;28;20287;-62
2022/09/14 11:38:59;;;;;;;;;;;;;;;;;;10455317;28;19925;-62
2022/09/14 11:44:07;;;;;;;;;;;;;;;;;;10461971;28;20363;-62
2022/09/14 11:49:09;;;;;;;;;;;;;;;;;;10442179;28;19929;-62
2022/09/14 11:54:11;;;;;;;;;;;;;;;;;;10423336;28;19925;-62
2022/09/14 11:59:13;;;;;;;;;;;;;;;;;;10423138;28;19925;-62
2022/09/14 12:04:15;;;;;;;;;;;;;;;;;;10422363;28;20380;-62
2022/09/14 12:09:21;;;;;;;;;;;;;;;;;;10422841;28;19929;-62
2022/09/14 12:14:25;;;;;;;;;;;;;;;;;;10422229;28;19955;-62
2022/09/14 12:19:27;;;;;;;;;;;;;;;;;;10422524;28;19925;-62
2022/09/14 12:24:29;;;;;;;;;;;;;;;;;;10422211;28;19925;-62
2022/09/14 12:29:31;;;;;;;;;;;;;;;;;;10421348;28;20331;-62
2022/09/14 12:34:33;;;;;;;;;;;;;;;;;;10461314;28;19974;-62
2022/09/14 12:39:35;;;;;;;;;;;;;;;;;;10462294;28;19994;-62
2022/09/14 12:44:37;;;;;;;;;;;;;;;;;;10462071;28;19991;-62
2022/09/14 12:49:40;;;;;;;;;;;;;;;;;;10461562;28;19925;-62
2022/09/14 12:54:42;;;;;;;;;;;;;;;;;;10461048;28;19948;-62
2022/09/14 12:59:46;;;;;;;;;;;;;;;;;;10462146;28;19938;-62
2022/09/14 13:04:48;;;;;;;;;;;;;;;;;;10461410;28;20338;-61
2022/09/14 13:09:50;;;;;;;;;;;;;;;;;;10461866;28;19928;-61
2022/09/14 13:14:53;;;;;;;;;;;;;;;;;;10460780;28;20294;-61
2022/09/14 13:19:55;;;;;;;;;;;;;;;;;;10461433;28;19974;-62
2022/09/14 13:24:57;;;;;;;;;;;;;;;;;;10461177;28;19925;-61
2022/09/14 13:29:59;;;;;;;;;;;;;;;;;;10460433;28;19986;-61
2022/09/14 13:35:01;;;;;;;;;;;;;;;;;;10460134;28;19948;-61
2022/09/14 13:40:03;;;;;;;;;;;;;;;;;;10460649;28;19925;-62
2022/09/14 13:45:05;;;;;;;;;;;;;;;;;;10460416;28;19960;-61
2022/09/14 13:50:07;;;;;;;;;;;;;;;;;;10459540;28;19924;-61
2022/09/14 13:55:09;;;;;;;;;;;;;;;;;;10459319;28;19990;-61
2022/09/14 14:00:11;;;;;;;;;;;;;;;;;;10459196;28;19925;-61
2022/09/14 14:05:13;;;;;;;;;;;;;;;;;;10459317;28;19924;-61
2022/09/14 14:10:15;;;;;;;;;;;;;;;;;;10455260;28;19936;-61
2022/09/14 14:15:21;;;;;;;;;;;;;;;;;;10456702;28;20357;-61
2022/09/14 14:20:23;;;;;;;;;;;;;;;;;;10458981;28;19979;-62
2022/09/14 14:25:25;;;;;;;;;;;;;;;;;;10455948;28;20387;-62
2022/09/14 14:30:28;;;;;;;;;;;;;;;;;;10458632;28;19974;-67
2022/09/14 14:35:31;;;;;;;;;;;;;;;;;;10457571;28;19929;-67
2022/09/14 14:40:33;;;;;;;;;;;;;;;;;;10458286;28;19978;-67
2022/09/14 14:45:36;;;;;;;;;;;;;;;;;;10455922;28;19982;-67
2022/09/14 14:50:38;;;;;;;;;;;;;;;;;;10455202;28;19947;-68
2022/09/14 14:55:41;;;;;;;;;;;;;;;;;;10461236;28;19924;-68
2022/09/14 15:00:43;;;;;;;;;;;;;;;;;;10457728;28;19975;-68
2022/09/14 15:05:45;;;;;;;;;;;;;;;;;;10455431;28;19962;-68
2022/09/14 15:10:48;;;;;;;;;;;;;;;;;;10456828;28;19925;-68
2022/09/14 15:15:50;;;;;;;;;;;;;;;;;;10456065;28;19959;-68
2022/09/14 15:20:52;;;;;;;;;;;;;;;;;;10455154;28;19925;-68
2022/09/14 15:25:55;;;;;;;;;;;;;;;;;;10453533;28;19925;-68
2022/09/14 15:30:57;;;;;;;;;;;;;;;;;;10456545;28;19924;-68
2022/09/14 15:35:59;;;;;;;;;;;;;;;;;;10456302;28;20387;-68
2022/09/14 15:41:01;;;;;;;;;;;;;;;;;;10454409;28;19925;-68
2022/09/14 15:46:03;;;;;;;;;;;;;;;;;;10454486;28;20031;-68
2022/09/14 15:51:05;;;;;;;;;;;;;;;;;;10455113;28;19928;-68
2022/09/14 15:56:07;;;;;;;;;;;;;;;;;;10454297;28;19975;-68
2022/09/14 16:01:09;;;;;;;;;;;;;;;;;;10456444;28;19986;-68
2022/09/14 16:06:12;;;;;;;;;;;;;;;;;;10455563;28;19935;-68
2022/09/14 16:11:14;;;;;;;;;;;;;;;;;;10454150;28;19924;-68
2022/09/14 16:16:16;;;;;;;;;;;;;;;;;;10454892;28;19932;-68
2022/09/14 16:21:18;;;;;;;;;;;;;;;;;;10456397;28;19925;-68
2022/09/14 16:26:20;;;;;;;;;;;;;;;;;;10456603;28;19924;-69
2022/09/14 16:31:22;;;;;;;;;;;;;;;;;;10475585;28;19925;-63
2022/09/14 16:36:25;;;;;;;;;;;;;;;;;;10461166;28;19931;-62
2022/09/14 16:41:27;;;;;;;;;;;;;;;;;;10462435;28;19978;-62
2022/09/14 16:46:29;;;;;;;;;;;;;;;;;;10461615;28;19925;-62
2022/09/14 16:51:32;;;;;;;;;;;;;;;;;;10460439;28;20395;-62
2022/09/14 16:56:34;;;;;;;;;;;;;;;;;;10461808;28;19980;-62
2022/09/14 17:01:36;;;;;;;;;;;;;;;;;;10471341;28;19928;-62
2022/09/14 17:06:38;;;;;;;;;;;;;;;;;;10462242;28;21254;-62
2022/09/14 17:11:40;;;;;;;;;;;;;;;;;;10471559;28;19925;-62
2022/09/14 17:16:42;;;;;;;;;;;;;;;;;;10461005;28;19925;-62
2022/09/14 17:21:44;;;;;;;;;;;;;;;;;;10456399;28;20372;-62
2022/09/14 17:26:46;;;;;;;;;;;;;;;;;;10460137;28;19929;-62
2022/09/14 17:31:49;;;;;;;;;;;;;;;;;;10460972;28;19971;-62
2022/09/14 17:36:51;;;;;;;;;;;;;;;;;;10460008;28;20379;-62
2022/09/14 17:41:53;;;;;;;;;;;;;;;;;;10458349;28;19929;-62
2022/09/14 17:46:55;;;;;;;;;;;;;;;;;;10450321;28;19929;-62
2022/09/14 17:51:59;;;;;;;;;;;;;;;;;;10458308;28;19933;-62
2022/09/14 17:57:01;;;;;;;;;;;;;;;;;;10459556;28;19925;-62
2022/09/14 18:02:03;;;;;;;;;;;;;;;;;;10459779;28;19925;-62
2022/09/14 18:07:09;;;;;;;;;;;;;;;;;;10456543;28;20413;-62
2022/09/14 18:12:14;;;;;;;;;;;;;;;;;;10458720;28;19961;-62
2022/09/14 18:17:16;;;;;;;;;;;;;;;;;;10458271;28;20296;-63
2022/09/14 18:22:18;;;;;;;;;;;;;;;;;;10455613;28;19925;-62
2022/09/14 18:27:21;;;;;;;;;;;;;;;;;;10458486;28;19925;-62
2022/09/14 18:32:23;;;;;;;;;;;;;;;;;;10457065;28;19928;-62
2022/09/14 18:37:25;;;;;;;;;;;;;;;;;;10457612;28;19925;-62
2022/09/14 18:42:27;;;;;;;;;;;;;;;;;;10458318;28;19970;-62
2022/09/14 18:47:30;;;;;;;;;;;;;;;;;;10456123;28;19924;-62
2022/09/14 18:52:32;;;;;;;;;;;;;;;;;;10448605;28;20359;-62
2022/09/14 18:57:34;;;;;;;;;;;;;;;;;;10457565;28;19925;-62
2022/09/14 19:02:37;;;;;;;;;;;;;;;;;;10456165;28;19928;-62
2022/09/14 19:07:39;;;;;;;;;;;;;;;;;;10457532;28;19979;-62
2022/09/14 19:12:41;;;;;;;;;;;;;;;;;;10457387;28;19925;-62
2022/09/14 19:17:43;;;;;;;;;;;;;;;;;;10454609;28;19978;-62
2022/09/14 19:22:46;;;;;;;;;;;;;;;;;;10457122;28;19925;-62
2022/09/14 19:27:50;;;;;;;;;;;;;;;;;;10455109;28;19964;-62
2022/09/14 19:32:52;;;;;;;;;;;;;;;;;;10453124;28;20261;-62
2022/09/14 19:37:54;;;;;;;;;;;;;;;;;;10456875;28;19975;-62
2022/09/14 19:42:57;;;;;;;;;;;;;;;;;;10456728;28;19928;-62
2022/09/14 19:47:59;;;;;;;;;;;;;;;;;;10455255;28;19925;-62
2022/09/14 19:53:01;;;;;;;;;;;;;;;;;;10455393;28;19925;-62
2022/09/14 19:58:05;;;;;;;;;;;;;;;;;;10456505;28;19924;-61
2022/09/14 20:03:07;;;;;;;;;;;;;;;;;;10457350;28;19979;-62
2022/09/14 20:08:09;;;;;;;;;;;;;;;;;;10461527;28;19924;-61
2022/09/14 20:13:11;;;;;;;;;;;;;;;;;;10463147;28;19982;-62
2022/09/14 20:18:13;;;;;;;;;;;;;;;;;;10460983;28;20429;-62
2022/09/14 20:23:15;;;;;;;;;;;;;;;;;;10463741;28;19978;-62
2022/09/14 20:28:18;;;;;;;;;;;;;;;;;;10460758;28;20379;-61
2022/09/14 20:33:20;;;;;;;;;;;;;;;;;;10463341;28;19924;-61
2022/09/14 20:38:22;;;;;;;;;;;;;;;;;;10460550;28;20426;-62
2022/09/14 20:43:24;;;;;;;;;;;;;;;;;;10463617;28;19925;-61
2022/09/14 20:48:26;;;;;;;;;;;;;;;;;;10462063;28;20355;-62
2022/09/14 20:53:28;;;;;;;;;;;;;;;;;;10469212;28;20338;-62
2022/09/14 20:58:30;;;;;;;;;;;;;;;;;;10459829;28;19971;-62
2022/09/14 21:03:32;;;;;;;;;;;;;;;;;;10472215;28;19931;-61
2022/09/14 21:08:34;;;;;;;;;;;;;;;;;;10475985;28;19947;-62
2022/09/14 21:13:36;;;;;;;;;;;;;;;;;;10470846;28;19982;-62
2022/09/14 21:18:38;;;;;;;;;;;;;;;;;;10457807;28;19924;-62
2022/09/14 21:23:41;;;;;;;;;;;;;;;;;;10461294;28;20335;-62
2022/09/14 21:28:43;;;;;;;;;;;;;;;;;;10461149;28;19925;-62
2022/09/14 21:33:45;;;;;;;;;;;;;;;;;;10459457;28;19951;-62
2022/09/14 21:38:47;;;;;;;;;;;;;;;;;;10458943;28;19932;-62
2022/09/14 21:43:49;;;;;;;;;;;;;;;;;;10460541;28;19970;-62
2022/09/14 21:48:51;;;;;;;;;;;;;;;;;;10460404;28;19924;-62
2022/09/14 21:53:53;;;;;;;;;;;;;;;;;;10458687;28;19924;-62
2022/09/14 21:58:56;;;;;;;;;;;;;;;;;;10458397;28;20381;-62
2022/09/14 22:03:58;;;;;;;;;;;;;;;;;;10457768;28;19978;-62
2022/09/14 22:09:00;;;;;;;;;;;;;;;;;;10458864;28;20360;-62
2022/09/14 22:14:02;;;;;;;;;;;;;;;;;;10459256;28;19933;-61
2022/09/14 22:19:04;;;;;;;;;;;;;;;;;;10457890;28;19960;-62
2022/09/14 22:24:06;;;;;;;;;;;;;;;;;;10457480;28;19932;-62
2022/09/14 22:29:09;;;;;;;;;;;;;;;;;;10458748;28;19925;-62
2022/09/14 22:34:11;;;;;;;;;;;;;;;;;;10456468;28;19925;-62
2022/09/14 22:39:13;;;;;;;;;;;;;;;;;;10458475;28;19983;-62
2022/09/14 22:44:15;;;;;;;;;;;;;;;;;;10456731;28;19925;-62
2022/09/14 22:49:17;;;;;;;;;;;;;;;;;;10458143;28;19974;-62
2022/09/14 22:54:19;;;;;;;;;;;;;;;;;;10456206;28;20367;-62
2022/09/14 22:59:21;;;;;;;;;;;;;;;;;;10457028;28;19925;-62
2022/09/14 23:04:23;;;;;;;;;;;;;;;;;;10456305;28;20330;-62
2022/09/14 23:09:25;;;;;;;;;;;;;;;;;;10457085;28;20449;-61
2022/09/14 23:14:27;;;;;;;;;;;;;;;;;;10455112;28;19994;-61
2022/09/14 23:19:29;;;;;;;;;;;;;;;;;;10457370;28;19925;-62
2022/09/14 23:24:31;;;;;;;;;;;;;;;;;;10454052;28;19925;-62
2022/09/14 23:29:33;;;;;;;;;;;;;;;;;;10457133;22;19994;-58
2022/09/14 23:34:36;;;;;;;;;;;;;;;;;;10399013;28;19925;-58
2022/09/14 23:39:38;;;;;;;;;;;;;;;;;;10421506;28;19925;-57
2022/09/14 23:44:40;;;;;;;;;;;;;;;;;;10421752;28;20438;-57
2022/09/14 23:49:42;;;;;;;;;;;;;;;;;;10423788;28;19971;-57
2022/09/14 23:54:44;;;;;;;;;;;;;;;;;;10421859;28;20372;-59
2022/09/14 23:59:46;;;;;;;;;;;;;;;;;;10422865;28;19925;-59
